Twin Hills, Alaska
Current Conditions -  °F | °C
As of 1:56 PM on Tuesday 21 Oct 2014 (Local Time) from PATG Reporting Station
Overcast Overcast  
Wind Chill: 28°   Ceiling: 1900
Heat Index: 34°   Visibility: 10mi
Dew Point: 28°   Wind: 7mph
Humidity: 81%   Direction: 80°E
Pressure: 29.32"   Gusts: NA
Location:  59.3265°N, 160.095°W
Report Text: PATG 212156Z AUTO 08006KT 10SM BKN019 OVC024 01/M02 A2932 RMK AO1
Loading
Personal Weather Stations






























Interactive Weather Map
Tropical Storm Tracking
New forecast layout! Learn more

10-Day Weather Forecast

Advertisements
Track Severe Weather on mobile